createdAt,value
2018-12-14T00:58:02.028Z,22.23
2018-12-14T01:00:35.991Z,25.13
2018-12-14T01:03:09.929Z,23.70
2018-12-14T01:05:44.023Z,22.47
2018-12-14T01:08:17.994Z,25.30
2018-12-14T01:10:51.941Z,23.67
2018-12-14T01:13:26.216Z,23.27
2018-12-14T01:16:00.381Z,23.70
2018-12-14T01:18:34.342Z,24.70
2018-12-14T01:21:08.426Z,25.23
2018-12-14T01:23:42.360Z,22.53
2018-12-14T01:26:16.300Z,23.40
2018-12-14T01:28:50.456Z,22.63
2018-12-14T01:31:24.464Z,22.43
2018-12-14T01:33:58.403Z,22.57
2018-12-14T01:36:32.478Z,21.00
2018-12-14T01:39:06.963Z,22.87
2018-12-14T01:41:40.911Z,22.67
2018-12-14T01:44:15.148Z,22.80
2018-12-14T01:46:49.169Z,26.73
2018-12-14T01:49:23.243Z,18.17
2018-12-14T01:51:57.243Z,21.87
2018-12-14T01:54:31.350Z,24.73
2018-12-14T01:57:06.483Z,23.53
2018-12-14T01:59:40.465Z,17.80
2018-12-14T02:02:14.647Z,20.40
2018-12-14T02:04:48.672Z,21.73
2018-12-14T02:07:22.753Z,16.20
2018-12-14T02:09:56.740Z,21.80
2018-12-14T02:12:30.608Z,18.47
2018-12-14T02:15:05.295Z,22.63
2018-12-14T02:17:39.399Z,22.03
2018-12-14T02:20:13.339Z,24.90
2018-12-14T02:22:47.322Z,23.20
2018-12-14T02:25:21.295Z,24.00
2018-12-14T02:27:55.336Z,22.90
2018-12-14T02:30:35.734Z,21.33
2018-12-14T02:33:09.964Z,25.53
2018-12-14T02:35:44.040Z,24.13
2018-12-14T02:38:18.003Z,22.87
2018-12-14T02:40:51.975Z,24.33
2018-12-14T02:43:26.099Z,20.83
2018-12-14T02:46:00.197Z,21.30
2018-12-14T02:48:34.224Z,16.87
2018-12-14T02:51:08.218Z,15.37
2018-12-14T02:53:42.121Z,20.37
2018-12-14T02:56:16.136Z,19.90
2018-12-14T02:58:50.315Z,15.10
2018-12-14T03:01:24.278Z,19.30
2018-12-14T03:03:58.166Z,17.30
2018-12-14T03:06:32.214Z,17.10
2018-12-14T03:09:06.291Z,17.20
2018-12-14T03:11:40.466Z,19.87
2018-12-14T03:14:14.612Z,21.03
2018-12-14T03:16:48.957Z,18.77
2018-12-14T03:19:23.025Z,18.87
2018-12-14T03:21:56.988Z,18.90
2018-12-14T03:24:30.952Z,21.03
2018-12-14T03:27:05.064Z,22.60
2018-12-14T03:29:38.935Z,22.00
2018-12-14T03:32:12.968Z,19.90
2018-12-14T03:34:46.959Z,22.43
2018-12-14T03:37:21.017Z,20.83
2018-12-14T03:39:55.027Z,20.13
2018-12-14T03:42:34.284Z,23.50
2018-12-14T03:45:05.169Z,21.80
2018-12-14T03:47:39.209Z,22.23
2018-12-14T03:50:13.169Z,20.00
2018-12-14T03:52:47.100Z,22.50
2018-12-14T03:55:21.063Z,20.43
2018-12-14T03:57:55.330Z,21.07
2018-12-14T04:00:29.504Z,20.80
2018-12-14T04:03:03.687Z,21.87
2018-12-14T04:05:37.689Z,19.83
2018-12-14T04:08:11.772Z,20.07
2018-12-14T04:10:45.659Z,22.20
2018-12-14T04:13:19.625Z,19.83
2018-12-14T04:15:53.556Z,21.27
2018-12-14T04:18:27.533Z,15.60
2018-12-14T04:21:01.487Z,10.70
2018-12-14T04:23:35.558Z,21.07
2018-12-14T04:26:09.529Z,22.60
2018-12-14T04:28:43.491Z,21.90
2018-12-14T04:31:17.549Z,20.60
2018-12-14T04:33:51.496Z,21.40
2018-12-14T04:36:25.831Z,20.97
2018-12-14T04:38:59.746Z,22.53
2018-12-14T04:41:33.651Z,23.47
2018-12-14T04:44:07.667Z,23.60
2018-12-14T04:46:41.633Z,19.90
2018-12-14T04:49:15.688Z,21.00
2018-12-14T04:51:49.801Z,15.90
2018-12-14T04:54:23.992Z,21.10
2018-12-14T04:56:58.289Z,12.87
2018-12-14T04:59:32.457Z,13.77
2018-12-14T05:02:06.393Z,14.40
2018-12-14T05:04:40.290Z,20.50
2018-12-14T05:07:14.225Z,20.07
2018-12-14T05:09:48.136Z,21.60
2018-12-14T05:12:22.253Z,18.00
2018-12-14T05:14:56.298Z,17.30
2018-12-14T05:17:30.395Z,12.00
2018-12-14T05:20:04.591Z,15.33
2018-12-14T05:22:38.730Z,20.00
2018-12-14T05:25:12.812Z,18.87
2018-12-14T05:27:46.887Z,21.00
2018-12-14T05:30:21.117Z,8.60
2018-12-14T05:32:55.753Z,11.80
2018-12-14T05:35:29.707Z,14.07
2018-12-14T05:38:03.832Z,17.47
2018-12-14T05:40:37.955Z,17.77
2018-12-14T05:43:12.088Z,20.70
2018-12-14T05:45:46.268Z,20.67
2018-12-14T05:48:20.403Z,20.40
2018-12-14T05:50:54.576Z,22.00
2018-12-14T05:53:28.741Z,22.90
2018-12-14T05:56:02.993Z,20.40
2018-12-14T05:58:37.204Z,21.93
2018-12-14T06:01:11.345Z,8.43
2018-12-14T06:03:45.385Z,19.33
2018-12-14T06:06:19.666Z,18.10
2018-12-14T06:08:53.902Z,21.30
2018-12-14T06:11:28.173Z,22.53
2018-12-14T06:14:02.152Z,18.97
2018-12-14T06:16:36.166Z,19.67
2018-12-14T06:19:10.403Z,17.43
2018-12-14T06:21:44.835Z,19.20
2018-12-14T06:24:18.923Z,20.40
2018-12-14T06:26:52.956Z,20.20
2018-12-14T06:29:27.700Z,16.30
2018-12-14T06:32:01.828Z,19.10
2018-12-14T06:34:35.915Z,12.27
2018-12-14T06:37:10.339Z,16.50
2018-12-14T06:39:44.635Z,17.63
2018-12-14T06:42:19.007Z,18.73
2018-12-14T06:44:53.375Z,17.80
2018-12-14T06:47:29.616Z,20.10
2018-12-14T06:50:03.989Z,21.60
2018-12-14T06:52:39.766Z,18.17
2018-12-14T06:55:14.196Z,12.27
2018-12-14T06:57:48.530Z,19.30
2018-12-14T07:00:22.660Z,17.50
2018-12-14T07:02:56.665Z,19.87
2018-12-14T07:05:30.896Z,19.47
2018-12-14T07:08:05.092Z,20.97
2018-12-14T07:10:39.636Z,22.10
2018-12-14T07:13:14.994Z,18.67
2018-12-14T07:24:55.387Z,20.73
2018-12-14T07:27:29.808Z,18.77
2018-12-14T07:30:04.562Z,17.70
2018-12-14T07:32:39.170Z,19.30
2018-12-14T07:35:14.034Z,17.30
2018-12-14T07:37:49.328Z,12.07
2018-12-14T07:40:23.866Z,16.73
2018-12-14T07:43:02.901Z,20.77
2018-12-14T09:50:05.263Z,15.67
2018-12-14T09:52:39.166Z,13.33
2018-12-14T09:55:13.028Z,19.33
2018-12-14T09:57:46.940Z,19.50
2018-12-14T10:00:20.911Z,20.10
2018-12-14T10:02:54.800Z,19.20
2018-12-14T10:05:28.783Z,20.33
2018-12-14T10:08:02.847Z,19.07
2018-12-14T10:10:37.056Z,17.90
2018-12-14T10:13:11.191Z,19.47
2018-12-14T10:15:45.223Z,19.00
2018-12-14T10:18:19.280Z,20.90
2018-12-14T10:20:53.145Z,19.40
2018-12-14T10:23:27.335Z,20.33
2018-12-14T10:26:01.472Z,16.00
2018-12-14T10:28:36.131Z,12.30
2018-12-14T10:31:11.445Z,18.23
2018-12-14T10:33:45.848Z,16.37
2018-12-14T10:36:22.823Z,15.17
2018-12-14T10:38:57.277Z,18.70
2018-12-14T10:41:31.630Z,18.13
2018-12-14T10:44:07.542Z,15.60
2018-12-14T10:46:41.868Z,14.83
2018-12-14T10:49:16.094Z,16.40
2018-12-14T10:51:51.215Z,19.10
2018-12-14T10:54:28.282Z,15.30
2018-12-14T10:57:03.016Z,13.17
2018-12-14T10:59:37.449Z,16.57
2018-12-14T11:02:13.213Z,10.60
2018-12-14T11:04:47.234Z,17.47
2018-12-14T11:07:21.469Z,13.57
2018-12-14T11:09:56.841Z,14.30
2018-12-14T11:12:31.598Z,7.67
2018-12-14T11:15:06.049Z,12.13
2018-12-14T11:17:40.153Z,11.43
2018-12-14T11:20:14.349Z,11.27
2018-12-14T11:22:49.773Z,15.37
2018-12-14T11:25:24.376Z,18.87
2018-12-14T11:27:58.631Z,19.90
2018-12-14T11:30:35.670Z,14.40
2018-12-14T11:33:10.121Z,16.70
2018-12-14T11:35:45.087Z,11.70
2018-12-14T11:38:19.912Z,16.47
2018-12-14T11:40:54.057Z,15.50
2018-12-14T11:43:28.702Z,13.50
2018-12-14T11:46:03.177Z,10.70
2018-12-14T11:48:38.635Z,20.20
2018-12-14T11:51:14.446Z,15.97
2018-12-14T11:53:51.521Z,17.93
2018-12-14T11:56:25.569Z,17.23
2018-12-14T11:59:00.084Z,15.20
2018-12-14T12:01:34.251Z,16.63
2018-12-14T12:04:08.497Z,11.93
2018-12-14T12:06:42.549Z,16.93
2018-12-14T12:09:17.033Z,16.90
2018-12-14T12:11:51.140Z,17.37
2018-12-14T12:14:27.156Z,20.10
2018-12-14T12:17:01.539Z,17.10
2018-12-14T12:19:35.560Z,17.40
2018-12-14T12:22:09.873Z,18.67
2018-12-14T12:24:44.059Z,23.87
2018-12-14T12:27:18.735Z,10.47
2018-12-14T12:29:53.041Z,14.00
2018-12-14T12:32:27.406Z,10.80
2018-12-14T12:35:02.165Z,15.30
2018-12-14T12:37:36.534Z,15.83
2018-12-14T12:40:11.004Z,9.37
2018-12-14T12:42:45.416Z,15.43
2018-12-14T12:45:20.310Z,14.30
2018-12-14T12:47:54.579Z,14.57
2018-12-14T12:50:28.688Z,15.67
2018-12-14T12:53:02.632Z,15.53
2018-12-14T12:55:36.631Z,15.33
2018-12-14T12:58:11.969Z,16.07
2018-12-14T13:00:46.183Z,16.50
2018-12-14T13:03:20.258Z,15.00
2018-12-14T13:05:54.469Z,8.10
2018-12-14T13:08:28.750Z,15.53
2018-12-14T13:11:08.478Z,12.03
2018-12-14T13:13:42.956Z,14.30
2018-12-14T13:16:16.925Z,16.07
2018-12-14T13:18:51.104Z,15.73
2018-12-14T13:21:26.144Z,16.57
2018-12-14T13:24:02.118Z,15.50
2018-12-14T13:26:36.304Z,18.63
2018-12-14T13:29:10.728Z,16.20
2018-12-14T13:31:44.762Z,14.33
2018-12-14T13:34:22.911Z,17.27
2018-12-14T13:36:57.261Z,14.50
2018-12-14T13:39:32.163Z,14.00
2018-12-14T13:42:06.336Z,15.93
2018-12-14T13:44:46.533Z,19.10
2018-12-14T13:47:23.490Z,17.83
2018-12-14T13:49:57.572Z,16.90
2018-12-14T13:52:31.550Z,15.20
2018-12-14T13:55:05.986Z,16.47
2018-12-14T13:57:40.333Z,17.53
2018-12-14T14:00:14.518Z,17.83
2018-12-14T14:02:48.752Z,18.33
2018-12-14T14:05:23.537Z,17.30
2018-12-14T14:07:57.897Z,17.57
2018-12-14T14:10:32.329Z,17.90
2018-12-14T14:13:06.612Z,16.57
2018-12-14T14:15:40.857Z,17.63
2018-12-14T14:18:15.251Z,17.53
2018-12-14T14:20:49.621Z,17.10
2018-12-14T14:23:25.139Z,14.57
2018-12-14T14:25:59.241Z,14.00
2018-12-14T14:28:33.382Z,15.20
2018-12-14T14:31:07.685Z,16.17
2018-12-14T14:33:42.023Z,15.90
2018-12-14T14:36:16.336Z,12.70
2018-12-14T14:38:50.658Z,13.87
2018-12-14T14:41:25.068Z,12.30
2018-12-14T14:44:00.290Z,14.53
2018-12-14T14:46:34.515Z,15.17
2018-12-14T14:49:09.048Z,15.47
2018-12-14T14:51:43.390Z,13.60
2018-12-14T14:54:18.616Z,14.60
2018-12-14T14:56:52.726Z,12.83
2018-12-14T14:59:26.813Z,15.60
2018-12-14T15:02:01.630Z,17.83
2018-12-14T15:04:35.722Z,16.30
2018-12-14T15:07:10.101Z,15.60
2018-12-14T15:09:47.620Z,15.63
2018-12-14T15:12:21.865Z,15.70
2018-12-14T15:14:57.327Z,15.03
2018-12-14T15:17:44.885Z,15.03
2018-12-14T15:20:18.901Z,14.97
2018-12-14T15:22:56.367Z,15.60
2018-12-14T22:55:04.785Z,17.00
2018-12-14T22:57:38.879Z,16.53
2018-12-14T23:00:15.795Z,10.37
2018-12-14T23:02:50.058Z,15.10
2018-12-14T23:05:24.183Z,13.37
2018-12-14T23:07:58.152Z,13.03
2018-12-14T23:10:32.264Z,9.47
2018-12-14T23:13:06.315Z,15.60
2018-12-14T23:15:40.447Z,17.17
2018-12-14T23:18:14.391Z,16.90
2018-12-14T23:20:48.774Z,18.37
2018-12-14T23:23:22.720Z,15.20
2018-12-14T23:25:56.693Z,14.83
2018-12-14T23:28:30.875Z,11.00
2018-12-14T23:31:04.946Z,15.57
2018-12-14T23:33:38.959Z,14.87
2018-12-14T23:36:12.994Z,15.53
2018-12-14T23:38:46.959Z,15.90
2018-12-14T23:41:20.918Z,15.77
2018-12-14T23:43:55.404Z,12.13
2018-12-14T23:46:29.377Z,11.30
2018-12-14T23:49:03.484Z,14.07
2018-12-14T23:51:37.613Z,15.33
2018-12-14T23:54:11.523Z,14.03
2018-12-14T23:56:45.545Z,16.70
2018-12-14T23:59:19.406Z,16.10
